Pagrindinis puslapis
METAR-TAF:

METAR-TAF

Oro uostai :

Pekino tarptautinis oro uostas

Pekinas, Kinija

platuma: 39-56N, ilguma: 116-17E, Aukštis: 55 m

Dabartinis oras

Ataskaita buvo paskelbta 37 minutes, ne 05:00 UTC
Vėjas 2 kt nuo kintamojo kryptimis
Temperatūra 25°C
Drėgmė 17%
Slėgis 1026 hPa
Matomumas 10 km arba daugiau
nėra debesų žemiau 1500 m ir nėra kamuolinių lietaus debesų

METAR: ZBAA 180500Z VRB01MPS CAVOK 25/M02 Q1026 NOSIG

Laikas: 13:37 (05:37 UTC)

Prognozė

Ataskaita buvo paskelbta 8 valandos ir 17 minutes, ne 21:20 UTC
Prognozė galioja nuo 18 metu 00 UTC su 18 metu 24 UTC
Vėjas 8 kt iš Pietų
Matomumas 10 km arba daugiau
nėra debesų žemiau 1500 m ir nėra kamuolinių lietaus debesų

TAF: ZBAA 172120Z 1800/1824 18004MPS CAVOK TX27/1807Z TN14/1821Z

Orai ataskaitas ir orų prognozės (METAR, TAF).

turimą stotys yra geltonos ir raudonos taškus žemėlapyje.

Perkelti pele per norėdami pamatyti stoties vardą.

Tada spustelėkite, norėdami matyti oro stebėjimo ir prognozės.

Norėdami pakeisti žemėlapį: spustelėkite ant žalios mygtukų su juodo kryžiaus žemyn,; žalią mygtuką su brūkšneliu, jei norite nutolinti; arba žalių rodyklių gretimoms žemėlapius.


METAR-TAF: